Terminal Aerodrome Forecast
Issued by NWS

Home | Current Version | Previous Version | Text Only | Print | Product List | Glossary On
Versions: 1 2 3 4 5 6 7 8 9 10 11 12
000
FTUS46 KSEW 291700
TAFBLI
TAF
KBLI 291739Z 2918/3018 VRB04KT P6SM SKC
     FM292000 25004KT P6SM SKC
     FM300100 20007KT P6SM SKC
     FM300600 18008KT P6SM SKC=

USA.gov is the U.S. government's official web portal to all federal, state and local government web resources and services.